createdAt,value
2018-08-06T00:00:14.816Z,26.15
2018-08-06T00:01:14.853Z,26.12
2018-08-06T00:02:14.878Z,26.09
2018-08-06T00:03:14.901Z,25.98
2018-08-06T00:04:14.935Z,25.99
2018-08-06T00:05:14.956Z,26.22
2018-08-06T00:06:14.995Z,26.40
2018-08-06T00:07:15.023Z,26.05
2018-08-06T00:08:15.042Z,25.87
2018-08-06T00:09:15.078Z,25.71
2018-08-06T00:10:15.090Z,25.89
2018-08-06T00:11:15.112Z,26.06
2018-08-06T00:12:15.145Z,25.80
2018-08-06T00:13:15.171Z,26.05
2018-08-06T00:14:15.202Z,26.28
2018-08-06T00:15:15.228Z,25.99
2018-08-06T00:16:15.256Z,25.91
2018-08-06T00:17:15.298Z,25.91
2018-08-06T00:18:15.308Z,26.06
2018-08-06T00:19:15.339Z,26.05
2018-08-06T00:20:15.360Z,26.02
2018-08-06T00:21:15.387Z,25.75
2018-08-06T00:22:15.427Z,25.90
2018-08-06T00:23:15.446Z,25.74
2018-08-06T00:24:15.468Z,25.52
2018-08-06T00:25:15.497Z,25.90
2018-08-06T00:26:15.525Z,26.17
2018-08-06T00:27:15.551Z,26.20
2018-08-06T00:28:15.578Z,26.20
2018-08-06T00:29:15.622Z,26.20
2018-08-06T00:30:15.637Z,26.12
2018-08-06T00:31:15.663Z,26.28
2018-08-06T00:32:15.698Z,26.05
2018-08-06T00:33:15.714Z,25.99
2018-08-06T00:34:15.743Z,26.05
2018-08-06T00:35:15.767Z,26.06
2018-08-06T00:36:15.796Z,26.02
2018-08-06T00:37:15.819Z,25.65
2018-08-06T00:38:15.858Z,25.32
2018-08-06T00:39:15.873Z,25.57
2018-08-06T00:40:15.897Z,25.49
2018-08-06T00:41:15.932Z,25.47
2018-08-06T00:42:15.949Z,25.77
2018-08-06T00:43:15.984Z,25.69
2018-08-06T00:44:16.007Z,25.61
2018-08-06T00:45:16.124Z,25.56
2018-08-06T00:46:16.056Z,25.72
2018-08-06T00:47:16.108Z,25.72
2018-08-06T00:48:16.115Z,25.61
2018-08-06T00:49:16.140Z,25.54
2018-08-06T00:50:16.178Z,25.62
2018-08-06T00:51:16.195Z,25.54
2018-08-06T00:52:16.230Z,25.77
2018-08-06T00:53:16.249Z,25.84
2018-08-06T00:54:16.276Z,25.64
2018-08-06T00:55:16.320Z,25.72
2018-08-06T00:56:16.394Z,25.56
2018-08-06T00:57:16.355Z,25.57
2018-08-06T00:58:16.391Z,25.62
2018-08-06T00:59:16.411Z,25.62
2018-08-06T01:00:16.443Z,25.57
2018-08-06T01:01:16.462Z,25.61
2018-08-06T01:02:16.491Z,25.61
2018-08-06T01:03:16.516Z,25.57
2018-08-06T01:04:16.542Z,25.61
2018-08-06T01:05:16.573Z,25.61
2018-08-06T01:06:16.594Z,25.57
2018-08-06T01:07:16.623Z,25.56
2018-08-06T01:08:16.652Z,25.53
2018-08-06T01:09:16.677Z,25.56
2018-08-06T01:10:16.701Z,25.67
2018-08-06T01:11:16.725Z,25.59
2018-08-06T01:12:16.754Z,25.53
2018-08-06T01:13:16.786Z,25.52
2018-08-06T01:14:16.816Z,25.34
2018-08-06T01:15:16.836Z,25.39
2018-08-06T01:16:16.873Z,25.35
2018-08-06T01:17:16.892Z,25.31
2018-08-06T01:18:16.918Z,25.38
2018-08-06T01:19:16.945Z,25.38
2018-08-06T01:20:16.973Z,25.19
2018-08-06T01:21:16.999Z,25.17
2018-08-06T01:22:17.021Z,25.37
2018-08-06T01:23:17.050Z,25.28
2018-08-06T01:24:17.074Z,25.09
2018-08-06T01:25:17.106Z,25.52
2018-08-06T01:26:17.129Z,25.64
2018-08-06T01:27:17.164Z,25.69
2018-08-06T01:28:17.179Z,25.72
2018-08-06T01:29:17.215Z,25.43
2018-08-06T01:30:17.235Z,25.32
2018-08-06T01:31:17.256Z,25.16
2018-08-06T01:32:17.284Z,25.12
2018-08-06T01:33:17.314Z,25.24
2018-08-06T01:34:17.341Z,25.34
2018-08-06T01:35:17.372Z,25.32
2018-08-06T01:36:17.400Z,25.35
2018-08-06T01:37:17.424Z,25.24
2018-08-06T01:38:17.481Z,25.34
2018-08-06T01:39:17.473Z,25.30
2018-08-06T01:40:17.499Z,25.42
2018-08-06T01:41:17.529Z,25.46
2018-08-06T01:42:17.557Z,25.50
2018-08-06T01:43:17.580Z,25.34
2018-08-06T01:44:17.605Z,25.22
2018-08-06T01:45:17.636Z,25.30
2018-08-06T01:46:17.662Z,25.02
2018-08-06T01:48:17.714Z,25.00
2018-08-06T01:49:17.742Z,25.00
2018-08-06T01:50:17.760Z,24.88
2018-08-06T01:51:17.790Z,25.12
2018-08-06T01:52:17.820Z,24.98
2018-08-06T01:53:17.843Z,24.76
2018-08-06T01:54:17.891Z,24.79
2018-08-06T01:55:17.898Z,24.67
2018-08-06T01:56:17.921Z,24.64
2018-08-06T01:57:17.957Z,24.88
2018-08-06T01:58:17.975Z,24.94
2018-08-06T01:59:18.007Z,25.00
2018-08-06T02:00:18.025Z,24.98
2018-08-06T02:01:18.052Z,25.10
2018-08-06T02:02:18.098Z,25.06
2018-08-06T02:03:18.116Z,25.02
2018-08-06T02:04:18.138Z,24.97
2018-08-06T02:05:18.162Z,24.76
2018-08-06T02:06:18.188Z,24.91
2018-08-06T02:07:18.222Z,24.68
2018-08-06T02:08:18.234Z,24.35
2018-08-06T02:09:18.270Z,24.37
2018-08-06T02:10:18.291Z,24.59
2018-08-06T02:11:18.321Z,24.50
2018-08-06T02:12:18.341Z,24.57
2018-08-06T02:13:18.368Z,24.60
2018-08-06T02:14:18.397Z,24.82
2018-08-06T02:15:18.427Z,24.75
2018-08-06T02:16:18.462Z,24.94
2018-08-06T02:17:18.479Z,25.06
2018-08-06T02:18:18.509Z,24.88
2018-08-06T02:19:18.523Z,24.75
2018-08-06T02:20:18.552Z,24.79
2018-08-06T02:21:18.584Z,24.73
2018-08-06T02:22:18.607Z,24.57
2018-08-06T02:23:18.636Z,24.90
2018-08-06T02:24:18.669Z,24.82
2018-08-06T02:25:18.692Z,24.83
2018-08-06T02:26:18.714Z,24.73
2018-08-06T02:27:18.739Z,24.54
2018-08-06T02:28:18.763Z,24.94
2018-08-06T02:29:18.789Z,25.02
2018-08-06T02:30:18.817Z,24.85
2018-08-06T02:31:18.844Z,24.52
2018-08-06T02:32:18.868Z,24.41
2018-08-06T02:33:18.901Z,24.67
2018-08-06T02:34:18.933Z,24.52
2018-08-06T02:35:18.950Z,24.50
2018-08-06T02:36:18.977Z,24.61
2018-08-06T02:37:19.005Z,24.56
2018-08-06T02:38:19.026Z,24.76
2018-08-06T02:39:19.059Z,24.59
2018-08-06T02:40:19.083Z,24.69
2018-08-06T02:41:19.103Z,24.73
2018-08-06T02:42:19.128Z,24.87
2018-08-06T02:43:19.160Z,24.64
2018-08-06T02:44:19.186Z,24.64
2018-08-06T02:45:19.202Z,24.73
2018-08-06T02:46:19.233Z,24.64
2018-08-06T02:47:19.260Z,24.83
2018-08-06T02:48:19.290Z,24.75
2018-08-06T02:49:19.314Z,24.87
2018-08-06T02:50:19.345Z,24.50
2018-08-06T02:51:19.364Z,24.50
2018-08-06T02:52:19.389Z,24.41
2018-08-06T02:53:19.422Z,24.59
2018-08-06T02:54:19.444Z,24.38
2018-08-06T02:55:19.465Z,24.22
2018-08-06T02:56:19.491Z,24.08
2018-08-06T02:57:19.520Z,24.13
2018-08-06T02:58:19.545Z,24.41
2018-08-06T02:59:19.574Z,24.32
2018-08-06T03:00:19.608Z,23.92
2018-08-06T03:01:19.620Z,23.92
2018-08-06T03:02:19.643Z,23.90
2018-08-06T03:03:19.678Z,23.79
2018-08-06T03:04:19.709Z,24.00
2018-08-06T03:05:19.724Z,23.87
2018-08-06T03:06:19.757Z,24.01
2018-08-06T03:07:19.788Z,24.07
2018-08-06T03:08:19.804Z,23.92
2018-08-06T03:09:19.827Z,23.83
2018-08-06T03:10:19.851Z,23.92
2018-08-06T03:11:19.881Z,23.87
2018-08-06T03:12:19.913Z,24.07
2018-08-06T03:13:19.932Z,24.10
2018-08-06T03:14:19.961Z,24.23
2018-08-06T03:15:19.983Z,24.05
2018-08-06T03:16:20.932Z,23.86
2018-08-06T03:17:20.040Z,23.80
2018-08-06T03:18:20.064Z,23.82
2018-08-06T03:19:20.096Z,24.02
2018-08-06T03:20:20.113Z,24.10
2018-08-06T03:21:20.137Z,24.12
2018-08-06T03:22:20.171Z,24.08
2018-08-06T03:23:20.188Z,24.02
2018-08-06T03:24:20.222Z,23.92
2018-08-06T03:25:20.244Z,24.17
2018-08-06T03:26:20.286Z,24.23
2018-08-06T03:27:20.297Z,24.20
2018-08-06T03:28:20.322Z,24.16
2018-08-06T03:29:20.349Z,24.24
2018-08-06T03:30:20.376Z,24.34
2018-08-06T03:31:20.402Z,24.53
2018-08-06T03:32:20.431Z,24.53
2018-08-06T03:33:20.454Z,24.38
2018-08-06T03:34:20.475Z,24.26
2018-08-06T03:35:20.515Z,24.19
2018-08-06T03:36:20.528Z,24.26
2018-08-06T03:37:20.553Z,24.31
2018-08-06T03:38:20.583Z,24.07
2018-08-06T03:39:20.601Z,24.02
2018-08-06T03:40:20.686Z,23.86
2018-08-06T03:42:20.679Z,23.79
2018-08-06T03:43:20.715Z,23.70
2018-08-06T03:44:20.727Z,23.80
2018-08-06T03:45:20.772Z,23.87
2018-08-06T03:46:20.785Z,23.75
2018-08-06T03:47:20.813Z,23.77
2018-08-06T03:48:20.855Z,23.98
2018-08-06T03:49:20.863Z,24.04
2018-08-06T03:50:20.892Z,24.17
2018-08-06T03:51:20.915Z,24.19
2018-08-06T03:52:20.939Z,23.89
2018-08-06T03:53:20.961Z,24.08
2018-08-06T03:54:20.988Z,23.94
2018-08-06T03:55:21.016Z,24.16
2018-08-06T03:56:21.043Z,24.14
2018-08-06T03:57:21.068Z,24.01
2018-08-06T03:58:21.092Z,24.14
2018-08-06T03:59:21.114Z,24.14
2018-08-06T04:00:21.160Z,24.01
2018-08-06T04:01:21.189Z,23.87
2018-08-06T04:02:21.191Z,23.75
2018-08-06T04:03:21.217Z,23.80
2018-08-06T04:04:21.240Z,24.00
2018-08-06T04:05:21.272Z,23.98
2018-08-06T04:06:21.292Z,23.77
2018-08-06T04:07:21.320Z,23.98
2018-08-06T04:08:21.354Z,24.13
2018-08-06T04:09:21.373Z,24.20
2018-08-06T04:10:21.396Z,24.16
2018-08-06T04:11:21.426Z,24.37
2018-08-06T04:12:21.455Z,24.27
2018-08-06T04:13:21.476Z,24.12
2018-08-06T04:14:21.502Z,24.22
2018-08-06T04:15:21.521Z,24.14
2018-08-06T04:16:21.550Z,24.05
2018-08-06T04:17:21.571Z,23.98
2018-08-06T04:18:21.612Z,23.95
2018-08-06T04:19:21.629Z,24.04
2018-08-06T04:20:21.652Z,24.14
2018-08-06T04:21:21.676Z,24.16
2018-08-06T04:22:21.705Z,24.37
2018-08-06T04:23:21.730Z,24.20
2018-08-06T04:24:21.754Z,24.08
2018-08-06T04:25:21.785Z,23.86
2018-08-06T04:26:21.807Z,23.86
2018-08-06T04:27:21.832Z,24.07
2018-08-06T04:28:21.865Z,24.13
2018-08-06T04:29:21.888Z,24.07
2018-08-06T04:30:21.909Z,24.22
2018-08-06T04:31:21.938Z,23.92
2018-08-06T04:32:21.960Z,23.97
2018-08-06T04:33:43.003Z,24.02
2018-08-06T04:34:22.015Z,24.07
2018-08-06T04:35:22.045Z,24.14
2018-08-06T04:36:22.057Z,24.00
2018-08-06T04:37:22.087Z,23.95
2018-08-06T04:38:22.120Z,24.00
2018-08-06T04:39:22.141Z,23.79
2018-08-06T04:40:22.163Z,24.12
2018-08-06T04:41:22.186Z,23.92
2018-08-06T04:42:22.224Z,24.08
2018-08-06T04:43:22.240Z,24.12
2018-08-06T04:44:22.265Z,24.23
2018-08-06T04:45:22.284Z,24.17
2018-08-06T04:46:22.324Z,24.12
2018-08-06T04:47:22.344Z,24.07
2018-08-06T04:48:22.374Z,24.10
2018-08-06T04:49:22.393Z,24.05
2018-08-06T04:50:22.421Z,24.19
2018-08-06T04:51:22.452Z,24.08
2018-08-06T04:52:22.468Z,24.07
2018-08-06T04:53:22.495Z,24.16
2018-08-06T04:54:22.557Z,24.13
2018-08-06T04:55:22.546Z,24.16
2018-08-06T04:56:22.579Z,24.10
2018-08-06T04:57:22.598Z,24.05
2018-08-06T04:58:22.628Z,24.14
2018-08-06T04:59:22.648Z,24.01
2018-08-06T05:00:22.679Z,24.10
2018-08-06T05:01:22.691Z,24.07
2018-08-06T05:02:22.725Z,24.22
2018-08-06T05:03:22.759Z,24.20
2018-08-06T05:04:22.771Z,24.14
2018-08-06T05:05:22.812Z,24.04
2018-08-06T05:06:22.827Z,24.07
2018-08-06T05:07:22.851Z,24.14
2018-08-06T05:08:22.871Z,24.26
2018-08-06T05:09:22.902Z,24.14
2018-08-06T05:10:22.927Z,24.22
2018-08-06T05:11:22.956Z,24.24
2018-08-06T05:12:22.991Z,24.22
2018-08-06T05:13:23.007Z,24.27
2018-08-06T05:14:23.028Z,24.34
2018-08-06T05:15:23.057Z,24.20
2018-08-06T05:16:23.091Z,24.20
2018-08-06T05:17:23.108Z,24.29
2018-08-06T05:18:23.134Z,24.37
2018-08-06T05:19:23.179Z,24.29
2018-08-06T05:20:23.180Z,24.32
2018-08-06T05:21:23.215Z,24.31
2018-08-06T05:22:23.240Z,24.35
2018-08-06T05:23:23.263Z,24.39
2018-08-06T05:24:23.281Z,24.39
2018-08-06T05:25:23.313Z,24.39
2018-08-06T05:26:23.340Z,24.41
2018-08-06T05:27:23.364Z,24.26
2018-08-06T05:28:23.389Z,24.19
2018-08-06T05:29:23.416Z,24.34
2018-08-06T05:30:23.450Z,24.29
2018-08-06T05:31:23.492Z,24.41
2018-08-06T05:32:23.494Z,24.31
2018-08-06T05:33:23.521Z,24.41
2018-08-06T05:34:23.542Z,24.31
2018-08-06T05:35:23.582Z,24.54
2018-08-06T05:36:23.596Z,24.54
2018-08-06T05:37:23.631Z,24.38
2018-08-06T05:38:23.656Z,24.50
2018-08-06T05:39:23.671Z,24.56
2018-08-06T05:40:23.695Z,24.50
2018-08-06T05:41:23.727Z,24.57
2018-08-06T05:42:23.751Z,24.53
2018-08-06T05:43:23.780Z,24.50
2018-08-06T05:44:23.804Z,24.49
2018-08-06T05:45:23.823Z,24.69
2018-08-06T05:46:23.864Z,24.61
2018-08-06T05:47:23.882Z,24.69
2018-08-06T05:48:24.022Z,24.59
2018-08-06T05:49:23.966Z,24.59
2018-08-06T05:50:23.960Z,24.47
2018-08-06T05:51:23.985Z,24.59
2018-08-06T05:52:24.008Z,24.79
2018-08-06T05:53:24.038Z,24.76
2018-08-06T05:54:24.073Z,24.50
2018-08-06T05:55:24.089Z,24.73
2018-08-06T05:56:24.109Z,24.73
2018-08-06T05:57:24.142Z,24.67
2018-08-06T05:58:24.226Z,24.77
2018-08-06T05:59:24.194Z,24.76
2018-08-06T06:00:24.220Z,24.56
2018-08-06T06:01:24.247Z,24.73
2018-08-06T06:02:24.267Z,24.69
2018-08-06T06:03:24.396Z,24.76
2018-08-06T06:04:24.323Z,24.75
2018-08-06T06:05:24.346Z,24.83
2018-08-06T06:06:24.377Z,24.88
2018-08-06T06:07:24.402Z,24.83
2018-08-06T06:08:24.427Z,24.71
2018-08-06T06:09:24.456Z,24.56
2018-08-06T06:10:24.475Z,24.79
2018-08-06T06:11:24.509Z,24.73
2018-08-06T06:12:24.529Z,24.68
2018-08-06T06:13:24.556Z,24.76
2018-08-06T06:14:24.601Z,24.80
2018-08-06T06:15:24.614Z,24.91
2018-08-06T06:16:24.633Z,24.90
2018-08-06T06:17:24.659Z,24.87
2018-08-06T06:18:24.688Z,24.90
2018-08-06T06:19:24.716Z,24.83
2018-08-06T06:20:24.739Z,24.95
2018-08-06T06:21:24.766Z,24.91
2018-08-06T06:22:24.794Z,24.88
2018-08-06T06:23:24.823Z,24.98
2018-08-06T06:24:24.849Z,24.92
2018-08-06T06:25:24.878Z,24.98
2018-08-06T06:26:24.911Z,25.01
2018-08-06T06:27:24.930Z,25.00
2018-08-06T06:28:24.948Z,24.94
2018-08-06T06:29:24.978Z,24.91
2018-08-06T06:30:25.009Z,24.91
2018-08-06T06:31:25.032Z,24.97
2018-08-06T06:32:25.058Z,25.06
2018-08-06T06:33:25.084Z,25.09
2018-08-06T06:34:25.115Z,25.15
2018-08-06T06:35:25.137Z,25.02
2018-08-06T06:36:25.161Z,25.12
2018-08-06T06:37:25.187Z,25.16
2018-08-06T06:38:25.214Z,25.02
2018-08-06T06:39:25.248Z,25.05
2018-08-06T06:40:25.293Z,24.98
2018-08-06T06:41:25.302Z,25.00
2018-08-06T06:42:25.317Z,25.24
2018-08-06T06:43:25.341Z,25.02
2018-08-06T06:44:25.374Z,25.16
2018-08-06T06:45:25.397Z,25.16
2018-08-06T06:46:25.423Z,25.20
2018-08-06T06:47:25.454Z,25.31
2018-08-06T06:48:25.484Z,25.28
2018-08-06T06:49:25.510Z,25.22
2018-08-06T06:50:25.524Z,25.34
2018-08-06T06:51:25.559Z,25.17
2018-08-06T06:52:25.585Z,25.20
2018-08-06T06:53:25.610Z,25.10
2018-08-06T06:54:25.662Z,25.24
2018-08-06T06:55:25.666Z,25.28
2018-08-06T06:56:25.690Z,25.34
2018-08-06T06:57:25.713Z,25.35
2018-08-06T06:58:25.741Z,25.35
2018-08-06T06:59:25.769Z,25.31
2018-08-06T07:00:25.794Z,25.24
2018-08-06T07:01:25.820Z,25.38
2018-08-06T07:02:25.846Z,25.38
2018-08-06T07:03:25.876Z,25.37
2018-08-06T07:04:25.907Z,25.38
2018-08-06T07:05:25.932Z,25.38
2018-08-06T07:06:26.008Z,25.50
2018-08-06T07:07:25.992Z,25.37
2018-08-06T07:08:26.010Z,25.35
2018-08-06T07:09:26.056Z,25.47
2018-08-06T07:10:26.064Z,25.49
2018-08-06T07:11:26.088Z,25.49
2018-08-06T07:13:26.147Z,25.54
2018-08-06T07:14:26.171Z,25.52
2018-08-06T07:15:26.198Z,25.52
2018-08-06T07:16:26.233Z,25.59
2018-08-06T07:17:26.248Z,25.71
2018-08-06T07:18:26.285Z,25.62
2018-08-06T07:19:26.305Z,25.62
2018-08-06T07:20:26.383Z,25.69
2018-08-06T07:21:26.357Z,25.71
2018-08-06T07:22:26.386Z,25.69
2018-08-06T07:23:26.409Z,25.69
2018-08-06T07:24:26.436Z,25.74
2018-08-06T07:25:26.462Z,25.72
2018-08-06T07:26:26.490Z,25.74
2018-08-06T07:27:26.514Z,25.77
2018-08-06T07:28:26.547Z,25.86
2018-08-06T07:29:26.571Z,25.89
2018-08-06T07:30:26.600Z,25.84
2018-08-06T07:31:26.626Z,25.83
2018-08-06T07:32:26.665Z,25.90
2018-08-06T07:33:26.678Z,25.97
2018-08-06T07:34:26.711Z,25.99
2018-08-06T07:35:26.737Z,25.98
2018-08-06T07:36:26.771Z,26.01
2018-08-06T07:37:26.796Z,26.04
2018-08-06T07:38:26.821Z,26.05
2018-08-06T07:39:26.865Z,26.09
2018-08-06T07:40:26.861Z,26.08
2018-08-06T07:41:26.895Z,26.17
2018-08-06T07:42:26.922Z,26.12
2018-08-06T07:43:26.950Z,26.20
2018-08-06T07:44:26.974Z,26.09
2018-08-06T07:45:27.010Z,26.09
2018-08-06T07:46:27.036Z,26.20
2018-08-06T07:47:27.055Z,26.18
2018-08-06T07:48:27.081Z,26.15
2018-08-06T07:49:27.149Z,26.17
2018-08-06T07:50:27.149Z,26.21
2018-08-06T07:51:27.164Z,26.28
2018-08-06T07:52:27.188Z,26.22
2018-08-06T07:53:27.223Z,26.28
2018-08-06T07:54:27.251Z,26.29
2018-08-06T07:55:27.274Z,26.37
2018-08-06T07:56:27.300Z,26.43
2018-08-06T07:57:27.331Z,26.40
2018-08-06T07:58:27.367Z,26.43
2018-08-06T07:59:27.391Z,26.43
2018-08-06T08:00:27.411Z,26.47
2018-08-06T08:01:27.435Z,26.44
2018-08-06T08:02:27.466Z,26.43
2018-08-06T08:03:27.499Z,26.58
2018-08-06T08:04:27.525Z,26.52
2018-08-06T08:05:27.555Z,26.59
2018-08-06T08:06:27.597Z,26.62
2018-08-06T08:07:27.604Z,26.50
2018-08-06T08:08:27.645Z,26.59
2018-08-06T08:09:27.662Z,26.59
2018-08-06T08:10:27.692Z,26.65
2018-08-06T08:11:27.709Z,26.68
2018-08-06T08:12:27.738Z,26.73
2018-08-06T08:13:27.787Z,26.72
2018-08-06T08:14:27.804Z,26.68
2018-08-06T08:16:27.852Z,26.72
2018-08-06T08:17:27.884Z,26.74
2018-08-06T08:18:27.908Z,26.80
2018-08-06T08:19:27.966Z,26.77
2018-08-06T08:20:27.965Z,26.74
2018-08-06T08:21:27.989Z,26.74
2018-08-06T08:22:28.019Z,26.79
2018-08-06T08:23:28.049Z,26.79
2018-08-06T08:24:28.079Z,26.89
2018-08-06T08:25:28.109Z,26.92
2018-08-06T08:26:28.130Z,26.95
2018-08-06T08:27:28.159Z,26.87
2018-08-06T08:28:28.189Z,26.91
2018-08-06T08:29:28.218Z,26.92
2018-08-06T08:30:28.240Z,26.95
2018-08-06T08:31:28.270Z,27.02
2018-08-06T08:32:28.309Z,26.95
2018-08-06T08:33:28.329Z,26.96
2018-08-06T08:34:28.357Z,26.95
2018-08-06T08:35:28.374Z,26.96
2018-08-06T08:36:28.406Z,27.02
2018-08-06T08:38:28.466Z,27.13
2018-08-06T08:39:28.540Z,27.10
2018-08-06T08:40:28.519Z,26.99
2018-08-06T08:41:28.553Z,26.98
2018-08-06T08:42:28.599Z,27.04
2018-08-06T08:43:28.615Z,27.14
2018-08-06T08:44:28.638Z,27.06
2018-08-06T08:45:28.668Z,27.05
2018-08-06T08:46:28.688Z,27.04
2018-08-06T08:47:28.719Z,27.11
2018-08-06T08:48:28.751Z,27.06
2018-08-06T08:49:28.775Z,27.16
2018-08-06T08:50:28.798Z,27.32
2018-08-06T08:51:28.832Z,27.32
2018-08-06T08:52:28.908Z,27.39
2018-08-06T08:53:28.886Z,27.41
2018-08-06T08:54:28.919Z,27.41
2018-08-06T08:55:28.941Z,27.38
2018-08-06T08:56:28.970Z,27.41
2018-08-06T08:57:29.005Z,27.36
2018-08-06T08:58:29.034Z,27.35
2018-08-06T08:59:29.066Z,27.36
2018-08-06T09:00:29.089Z,27.26
2018-08-06T09:01:29.111Z,27.39
2018-08-06T09:02:29.145Z,27.41
2018-08-06T09:03:29.182Z,27.38
2018-08-06T09:04:29.198Z,27.50
2018-08-06T09:05:29.225Z,27.39
2018-08-06T09:06:29.253Z,27.46
2018-08-06T09:07:29.280Z,27.50
2018-08-06T09:08:29.313Z,27.53
2018-08-06T09:09:29.340Z,27.61
2018-08-06T09:10:29.368Z,27.73
2018-08-06T09:11:29.399Z,27.73
2018-08-06T09:12:29.423Z,27.66
2018-08-06T09:13:29.455Z,27.73
2018-08-06T09:14:29.497Z,27.76
2018-08-06T09:15:29.513Z,27.66
2018-08-06T09:16:29.544Z,27.70
2018-08-06T09:17:29.567Z,27.70
2018-08-06T09:18:29.599Z,27.76
2018-08-06T09:19:29.636Z,27.85
2018-08-06T09:20:29.662Z,27.91
2018-08-06T09:21:29.688Z,27.99
2018-08-06T09:22:29.712Z,27.96
2018-08-06T09:23:29.735Z,27.82
2018-08-06T09:24:29.770Z,27.88
2018-08-06T09:25:29.797Z,27.80
2018-08-06T09:26:29.829Z,27.98
2018-08-06T09:27:29.853Z,28.04
2018-08-06T09:28:29.884Z,27.92
2018-08-06T09:29:29.912Z,27.86
2018-08-06T09:30:29.942Z,28.04
2018-08-06T09:31:29.968Z,27.94
2018-08-06T09:32:29.993Z,27.86
2018-08-06T09:33:30.022Z,27.80
2018-08-06T09:34:30.050Z,27.96
2018-08-06T09:35:30.090Z,27.95
2018-08-06T09:36:30.107Z,28.03
2018-08-06T09:37:30.138Z,28.06
2018-08-06T09:38:30.212Z,28.16
2018-08-06T09:39:30.207Z,28.36
2018-08-06T09:40:30.275Z,28.51
2018-08-06T09:41:30.259Z,28.48
2018-08-06T09:42:30.287Z,28.41
2018-08-06T09:43:30.321Z,28.41
2018-08-06T09:44:30.339Z,28.50
2018-08-06T09:45:30.372Z,28.35
2018-08-06T09:46:30.407Z,28.26
2018-08-06T09:47:30.439Z,28.26
2018-08-06T09:48:30.506Z,28.19
2018-08-06T09:49:30.491Z,28.33
2018-08-06T09:50:30.519Z,28.51
2018-08-06T09:51:30.547Z,28.50
2018-08-06T09:52:30.579Z,28.59
2018-08-06T09:53:30.613Z,28.46
2018-08-06T09:54:30.638Z,28.40
2018-08-06T09:55:30.669Z,28.44
2018-08-06T09:56:30.695Z,28.41
2018-08-06T09:57:30.716Z,28.48
2018-08-06T09:58:30.752Z,28.44
2018-08-06T09:59:30.785Z,28.44
2018-08-06T10:00:30.805Z,28.63
2018-08-06T10:01:30.840Z,28.87
2018-08-06T10:02:30.877Z,29.07
2018-08-06T10:03:30.905Z,29.10
2018-08-06T10:04:30.930Z,29.01
2018-08-06T10:05:30.988Z,29.01
2018-08-06T10:06:31.243Z,29.11
2018-08-06T10:07:31.011Z,28.96
2018-08-06T10:08:31.033Z,28.88
2018-08-06T10:09:31.075Z,28.73
2018-08-06T10:10:31.100Z,28.60
2018-08-06T10:11:31.134Z,28.50
2018-08-06T10:12:31.156Z,28.66
2018-08-06T10:13:31.194Z,28.62
2018-08-06T10:14:31.215Z,28.81
2018-08-06T10:15:31.241Z,28.97
2018-08-06T10:16:31.274Z,29.00
2018-08-06T10:17:31.313Z,29.00
2018-08-06T10:18:31.344Z,29.08
2018-08-06T10:19:31.389Z,29.13
2018-08-06T10:20:31.403Z,29.10
2018-08-06T10:21:31.418Z,28.91
2018-08-06T10:22:31.451Z,28.87
2018-08-06T10:23:31.485Z,28.88
2018-08-06T10:24:31.573Z,28.87
2018-08-06T10:25:31.533Z,28.93
2018-08-06T10:26:31.577Z,29.08
2018-08-06T10:27:31.596Z,28.91
2018-08-06T10:28:31.626Z,28.91
2018-08-06T10:29:31.659Z,28.88
2018-08-06T10:30:31.777Z,28.97
2018-08-06T10:31:31.717Z,29.22
2018-08-06T10:32:31.753Z,29.16
2018-08-06T10:33:31.778Z,29.08
2018-08-06T10:34:31.805Z,29.19
2018-08-06T10:35:31.834Z,29.18
2018-08-06T10:36:31.865Z,29.23
2018-08-06T10:37:31.910Z,29.33
2018-08-06T10:38:31.930Z,29.23
2018-08-06T10:39:31.955Z,29.20
2018-08-06T10:40:32.038Z,28.96
2018-08-06T10:41:32.019Z,29.06
2018-08-06T10:42:32.041Z,29.10
2018-08-06T10:43:32.071Z,29.26
2018-08-06T10:44:32.099Z,29.34
2018-08-06T10:45:32.125Z,29.19
2018-08-06T10:46:32.162Z,29.15
2018-08-06T10:47:32.205Z,29.16
2018-08-06T10:48:32.379Z,29.23
2018-08-06T10:49:32.248Z,29.41
2018-08-06T10:50:32.293Z,29.33
2018-08-06T10:51:32.309Z,29.55
2018-08-06T10:52:32.342Z,29.63
2018-08-06T10:53:32.374Z,29.55
2018-08-06T10:54:32.397Z,29.38
2018-08-06T10:55:32.436Z,29.50
2018-08-06T10:56:32.456Z,29.68
2018-08-06T10:57:32.490Z,29.65
2018-08-06T10:58:32.511Z,29.63
2018-08-06T10:59:32.570Z,29.40
2018-08-06T11:00:32.637Z,29.50
2018-08-06T11:01:32.614Z,29.40
2018-08-06T11:02:32.628Z,29.65
2018-08-06T11:03:32.690Z,29.56
2018-08-06T11:04:32.735Z,29.71
2018-08-06T11:05:32.725Z,29.82
2018-08-06T11:06:32.766Z,29.75
2018-08-06T11:07:32.787Z,29.55
2018-08-06T11:08:32.818Z,29.52
2018-08-06T11:09:32.848Z,29.65
2018-08-06T11:10:32.872Z,29.68
2018-08-06T11:11:32.923Z,29.63
2018-08-06T11:12:32.937Z,29.60
2018-08-06T11:13:32.980Z,29.45
2018-08-06T11:14:33.012Z,29.45
2018-08-06T11:15:33.024Z,29.50
2018-08-06T11:16:33.059Z,29.55
2018-08-06T11:17:33.086Z,29.71
2018-08-06T11:18:33.249Z,29.84
2018-08-06T11:19:33.153Z,29.63
2018-08-06T11:20:33.209Z,29.65
2018-08-06T11:21:33.215Z,29.79
2018-08-06T11:22:33.232Z,29.79
2018-08-06T11:23:33.272Z,30.00
2018-08-06T11:24:33.303Z,30.03
2018-08-06T11:25:33.331Z,30.24
2018-08-06T11:26:33.359Z,30.08
2018-08-06T11:27:33.393Z,29.82
2018-08-06T11:28:33.488Z,29.99
2018-08-06T11:29:33.450Z,29.93
2018-08-06T11:30:33.482Z,29.89
2018-08-06T11:31:33.511Z,30.08
2018-08-06T11:32:33.533Z,30.16
2018-08-06T11:33:33.572Z,30.09
2018-08-06T11:34:33.598Z,30.24
2018-08-06T11:35:33.631Z,30.49
2018-08-06T11:36:33.654Z,30.31
2018-08-06T11:37:33.689Z,30.31
2018-08-06T11:38:33.720Z,30.26
2018-08-06T11:39:33.777Z,30.21
2018-08-06T11:40:33.779Z,30.09
2018-08-06T11:41:33.817Z,30.09
2018-08-06T11:42:33.844Z,30.33
2018-08-06T11:43:33.871Z,30.27
2018-08-06T11:44:33.904Z,30.46
2018-08-06T11:45:33.935Z,30.72
2018-08-06T11:46:33.966Z,30.45
2018-08-06T11:47:34.004Z,30.37
2018-08-06T11:48:34.027Z,30.24
2018-08-06T11:49:34.052Z,30.36
2018-08-06T11:50:34.095Z,30.34
2018-08-06T11:51:34.113Z,30.52
2018-08-06T11:52:34.146Z,30.49
2018-08-06T11:53:34.179Z,30.37
2018-08-06T11:54:34.212Z,30.45
2018-08-06T11:55:34.247Z,30.45
2018-08-06T11:56:34.307Z,30.56
2018-08-06T11:57:34.324Z,30.43
2018-08-06T11:58:34.342Z,30.54
2018-08-06T11:59:34.375Z,30.54
2018-08-06T12:00:34.402Z,30.47
2018-08-06T12:01:34.434Z,30.46
2018-08-06T12:02:34.454Z,30.71
2018-08-06T12:03:34.487Z,30.93
2018-08-06T12:04:34.514Z,30.90
2018-08-06T12:05:34.561Z,30.81
2018-08-06T12:06:34.580Z,30.68
2018-08-06T12:07:34.616Z,30.54
2018-08-06T12:08:34.655Z,30.71
2018-08-06T12:09:34.674Z,30.84
2018-08-06T12:10:34.705Z,30.91
2018-08-06T12:11:34.733Z,30.99
2018-08-06T12:12:34.766Z,31.02
2018-08-06T12:13:34.812Z,30.96
2018-08-06T12:14:34.828Z,31.11
2018-08-06T12:15:34.868Z,31.11
2018-08-06T12:16:34.894Z,30.99
2018-08-06T12:17:34.924Z,30.99
2018-08-06T12:18:34.952Z,30.90
2018-08-06T12:19:34.985Z,31.01
2018-08-06T12:20:35.027Z,31.12
2018-08-06T12:21:35.054Z,31.46
2018-08-06T12:22:35.086Z,31.46
2018-08-06T12:23:35.148Z,31.21
2018-08-06T12:24:35.156Z,31.09
2018-08-06T12:25:35.188Z,31.11
2018-08-06T12:26:35.220Z,31.20
2018-08-06T12:27:35.234Z,31.39
2018-08-06T12:28:35.280Z,31.12
2018-08-06T12:29:35.304Z,31.11
2018-08-06T12:30:35.338Z,31.27
2018-08-06T12:31:35.437Z,31.30
2018-08-06T12:32:35.394Z,31.39
2018-08-06T12:33:35.431Z,31.21
2018-08-06T12:34:35.459Z,31.35
2018-08-06T12:35:35.495Z,31.57
2018-08-06T12:36:35.525Z,31.43
2018-08-06T12:37:35.551Z,31.20
2018-08-06T12:38:35.591Z,31.18
2018-08-06T12:39:35.650Z,31.04
2018-08-06T12:40:35.658Z,30.98
2018-08-06T12:41:35.679Z,30.98
2018-08-06T12:42:35.718Z,31.01
2018-08-06T12:43:35.752Z,31.05
2018-08-06T12:44:35.768Z,31.02
2018-08-06T12:45:35.810Z,31.26
2018-08-06T12:46:35.836Z,31.48
2018-08-06T12:47:35.866Z,31.60
2018-08-06T12:48:35.895Z,31.46
2018-08-06T12:49:35.932Z,31.36
2018-08-06T12:50:35.969Z,31.38
2018-08-06T12:51:36.040Z,31.40
2018-08-06T12:52:36.021Z,31.38
2018-08-06T12:53:36.069Z,31.55
2018-08-06T12:54:36.088Z,31.61
2018-08-06T12:55:36.124Z,31.39
2018-08-06T12:56:36.155Z,31.49
2018-08-06T12:57:36.180Z,31.49